sensor_id;sensor_type;location;lat;lon;timestamp;temperature;humidity
78461;SHT31;67755;51.986;5.696;2023-11-21T00:01:45;12.8;64.2
78461;SHT31;67755;51.986;5.696;2023-11-21T00:04:15;12.8;64.2
78461;SHT31;67755;51.986;5.696;2023-11-21T00:06:44;12.8;64.5
78461;SHT31;67755;51.986;5.696;2023-11-21T00:09:14;12.8;64.3
78461;SHT31;67755;51.986;5.696;2023-11-21T00:11:44;12.7;64.1
78461;SHT31;67755;51.986;5.696;2023-11-21T00:14:13;12.7;64.3
78461;SHT31;67755;51.986;5.696;2023-11-21T00:16:42;12.7;64.3
78461;SHT31;67755;51.986;5.696;2023-11-21T00:19:10;12.7;64.7
78461;SHT31;67755;51.986;5.696;2023-11-21T00:21:39;12.6;64.4
78461;SHT31;67755;51.986;5.696;2023-11-21T00:24:11;12.6;64.2
78461;SHT31;67755;51.986;5.696;2023-11-21T00:26:41;12.6;64.3
78461;SHT31;67755;51.986;5.696;2023-11-21T00:29:09;12.6;64.3
78461;SHT31;67755;51.986;5.696;2023-11-21T00:31:38;12.6;64.4
78461;SHT31;67755;51.986;5.696;2023-11-21T00:34:08;12.6;64.2
78461;SHT31;67755;51.986;5.696;2023-11-21T00:36:37;12.5;64.1
78461;SHT31;67755;51.986;5.696;2023-11-21T00:39:08;12.5;64.3
78461;SHT31;67755;51.986;5.696;2023-11-21T00:41:38;12.5;64.4
78461;SHT31;67755;51.986;5.696;2023-11-21T00:44:07;12.5;64.4
78461;SHT31;67755;51.986;5.696;2023-11-21T00:46:35;12.5;64.6
78461;SHT31;67755;51.986;5.696;2023-11-21T00:49:04;12.4;64.4
78461;SHT31;67755;51.986;5.696;2023-11-21T00:51:32;12.4;64.3
78461;SHT31;67755;51.986;5.696;2023-11-21T00:54:01;12.4;64.1
78461;SHT31;67755;51.986;5.696;2023-11-21T00:56:29;12.4;64.1
78461;SHT31;67755;51.986;5.696;2023-11-21T00:59:00;12.4;64.1
78461;SHT31;67755;51.986;5.696;2023-11-21T01:01:29;12.4;64.0
78461;SHT31;67755;51.986;5.696;2023-11-21T01:03:58;12.4;64.0
78461;SHT31;67755;51.986;5.696;2023-11-21T01:06:26;12.3;63.9
78461;SHT31;67755;51.986;5.696;2023-11-21T01:08:56;12.3;64.0
78461;SHT31;67755;51.986;5.696;2023-11-21T01:11:24;12.3;64.3
78461;SHT31;67755;51.986;5.696;2023-11-21T01:13:53;12.3;64.0
78461;SHT31;67755;51.986;5.696;2023-11-21T01:16:21;12.3;64.4
78461;SHT31;67755;51.986;5.696;2023-11-21T01:18:51;12.3;64.6
78461;SHT31;67755;51.986;5.696;2023-11-21T01:21:19;12.2;64.8
78461;SHT31;67755;51.986;5.696;2023-11-21T01:23:49;12.2;65.0
78461;SHT31;67755;51.986;5.696;2023-11-21T01:26:17;12.2;65.1
78461;SHT31;67755;51.986;5.696;2023-11-21T01:28:49;12.2;65.0
78461;SHT31;67755;51.986;5.696;2023-11-21T01:31:17;12.2;64.9
78461;SHT31;67755;51.986;5.696;2023-11-21T01:33:46;12.2;65.2
78461;SHT31;67755;51.986;5.696;2023-11-21T01:36:15;12.2;65.3
78461;SHT31;67755;51.986;5.696;2023-11-21T01:38:45;12.2;65.7
78461;SHT31;67755;51.986;5.696;2023-11-21T01:41:14;12.2;65.8
78461;SHT31;67755;51.986;5.696;2023-11-21T01:43:43;12.1;65.7
78461;SHT31;67755;51.986;5.696;2023-11-21T01:46:12;12.1;65.9
78461;SHT31;67755;51.986;5.696;2023-11-21T01:48:42;12.1;66.0
78461;SHT31;67755;51.986;5.696;2023-11-21T01:51:13;12.1;66.0
78461;SHT31;67755;51.986;5.696;2023-11-21T01:53:42;12.1;66.0
78461;SHT31;67755;51.986;5.696;2023-11-21T01:56:13;12.1;66.2
78461;SHT31;67755;51.986;5.696;2023-11-21T01:58:43;12.1;66.2
78461;SHT31;67755;51.986;5.696;2023-11-21T02:01:13;12.1;66.1
78461;SHT31;67755;51.986;5.696;2023-11-21T02:03:41;12.1;66.2
78461;SHT31;67755;51.986;5.696;2023-11-21T02:06:10;12.1;66.3
78461;SHT31;67755;51.986;5.696;2023-11-21T02:08:38;12.1;66.2
78461;SHT31;67755;51.986;5.696;2023-11-21T02:11:09;12.1;66.2
78461;SHT31;67755;51.986;5.696;2023-11-21T02:13:39;12.1;66.2
78461;SHT31;67755;51.986;5.696;2023-11-21T02:16:10;12.1;66.3
78461;SHT31;67755;51.986;5.696;2023-11-21T02:18:41;12.1;66.0
78461;SHT31;67755;51.986;5.696;2023-11-21T02:21:13;12.1;65.9
78461;SHT31;67755;51.986;5.696;2023-11-21T02:23:42;12.1;65.8
78461;SHT31;67755;51.986;5.696;2023-11-21T02:26:11;12.1;65.8
78461;SHT31;67755;51.986;5.696;2023-11-21T02:28:42;12.1;66.1
78461;SHT31;67755;51.986;5.696;2023-11-21T02:31:11;12.1;66.1
78461;SHT31;67755;51.986;5.696;2023-11-21T02:33:39;12.1;66.2
78461;SHT31;67755;51.986;5.696;2023-11-21T02:36:09;12.1;66.2
78461;SHT31;67755;51.986;5.696;2023-11-21T02:38:40;12.1;66.4
78461;SHT31;67755;51.986;5.696;2023-11-21T02:41:09;12.1;66.6
78461;SHT31;67755;51.986;5.696;2023-11-21T02:43:37;12.1;66.8
78461;SHT31;67755;51.986;5.696;2023-11-21T02:46:08;12.1;66.8
78461;SHT31;67755;51.986;5.696;2023-11-21T02:48:37;12.1;67.0
78461;SHT31;67755;51.986;5.696;2023-11-21T02:51:05;12.1;66.9
78461;SHT31;67755;51.986;5.696;2023-11-21T02:53:34;12.1;67.1
78461;SHT31;67755;51.986;5.696;2023-11-21T02:56:05;12.0;67.4
78461;SHT31;67755;51.986;5.696;2023-11-21T02:58:34;12.1;67.4
78461;SHT31;67755;51.986;5.696;2023-11-21T03:01:03;12.1;67.4
78461;SHT31;67755;51.986;5.696;2023-11-21T03:03:32;12.1;67.4
78461;SHT31;67755;51.986;5.696;2023-11-21T03:06:00;12.1;67.3
78461;SHT31;67755;51.986;5.696;2023-11-21T03:08:29;12.1;67.3
78461;SHT31;67755;51.986;5.696;2023-11-21T03:11:00;12.1;67.1
78461;SHT31;67755;51.986;5.696;2023-11-21T03:13:29;12.1;66.9
78461;SHT31;67755;51.986;5.696;2023-11-21T03:15:58;12.1;66.9
78461;SHT31;67755;51.986;5.696;2023-11-21T03:18:26;12.1;66.9
78461;SHT31;67755;51.986;5.696;2023-11-21T03:20:55;12.1;67.0
78461;SHT31;67755;51.986;5.696;2023-11-21T03:23:24;12.1;67.2
78461;SHT31;67755;51.986;5.696;2023-11-21T03:25:52;12.1;67.4
78461;SHT31;67755;51.986;5.696;2023-11-21T03:28:21;12.1;67.4
78461;SHT31;67755;51.986;5.696;2023-11-21T03:30:50;12.1;67.4
78461;SHT31;67755;51.986;5.696;2023-11-21T03:33:18;12.1;67.6
78461;SHT31;67755;51.986;5.696;2023-11-21T03:35:47;12.1;67.8
78461;SHT31;67755;51.986;5.696;2023-11-21T03:38:16;12.1;67.8
78461;SHT31;67755;51.986;5.696;2023-11-21T03:40:44;12.1;68.0
78461;SHT31;67755;51.986;5.696;2023-11-21T03:43:13;12.1;68.1
78461;SHT31;67755;51.986;5.696;2023-11-21T03:45:42;12.1;68.2
78461;SHT31;67755;51.986;5.696;2023-11-21T03:48:12;12.1;68.4
78461;SHT31;67755;51.986;5.696;2023-11-21T03:50:41;12.1;68.5
78461;SHT31;67755;51.986;5.696;2023-11-21T03:53:09;12.1;68.6
78461;SHT31;67755;51.986;5.696;2023-11-21T03:55:38;12.1;68.6
78461;SHT31;67755;51.986;5.696;2023-11-21T03:58:07;12.1;68.6
78461;SHT31;67755;51.986;5.696;2023-11-21T04:00:35;12.2;68.7
78461;SHT31;67755;51.986;5.696;2023-11-21T04:03:04;12.2;68.8
78461;SHT31;67755;51.986;5.696;2023-11-21T04:05:33;12.2;68.9
78461;SHT31;67755;51.986;5.696;2023-11-21T04:08:01;12.2;69.0
78461;SHT31;67755;51.986;5.696;2023-11-21T04:10:31;12.2;69.0
78461;SHT31;67755;51.986;5.696;2023-11-21T04:13:00;12.2;69.0
78461;SHT31;67755;51.986;5.696;2023-11-21T04:15:28;12.2;68.9
78461;SHT31;67755;51.986;5.696;2023-11-21T04:17:57;12.3;68.8
78461;SHT31;67755;51.986;5.696;2023-11-21T04:20:26;12.3;68.9
78461;SHT31;67755;51.986;5.696;2023-11-21T04:22:54;12.3;68.9
78461;SHT31;67755;51.986;5.696;2023-11-21T04:25:23;12.3;69.0
78461;SHT31;67755;51.986;5.696;2023-11-21T04:27:52;12.3;69.0
78461;SHT31;67755;51.986;5.696;2023-11-21T04:30:20;12.3;69.0
78461;SHT31;67755;51.986;5.696;2023-11-21T04:32:49;12.3;69.0
78461;SHT31;67755;51.986;5.696;2023-11-21T04:35:18;12.3;69.1
78461;SHT31;67755;51.986;5.696;2023-11-21T04:37:47;12.4;69.2
78461;SHT31;67755;51.986;5.696;2023-11-21T04:40:17;12.4;69.3
78461;SHT31;67755;51.986;5.696;2023-11-21T04:42:47;12.4;69.4
78461;SHT31;67755;51.986;5.696;2023-11-21T04:45:17;12.4;69.4
78461;SHT31;67755;51.986;5.696;2023-11-21T04:47:46;12.4;69.4
78461;SHT31;67755;51.986;5.696;2023-11-21T04:50:14;12.4;69.5
78461;SHT31;67755;51.986;5.696;2023-11-21T04:52:45;12.4;69.3
78461;SHT31;67755;51.986;5.696;2023-11-21T04:55:13;12.4;69.2
78461;SHT31;67755;51.986;5.696;2023-11-21T04:57:42;12.4;69.3
78461;SHT31;67755;51.986;5.696;2023-11-21T05:00:12;12.5;69.3
78461;SHT31;67755;51.986;5.696;2023-11-21T05:02:42;12.5;69.3
78461;SHT31;67755;51.986;5.696;2023-11-21T05:05:11;12.5;69.4
78461;SHT31;67755;51.986;5.696;2023-11-21T05:07:41;12.5;69.4
78461;SHT31;67755;51.986;5.696;2023-11-21T05:10:12;12.5;69.4
78461;SHT31;67755;51.986;5.696;2023-11-21T05:12:42;12.5;69.4
78461;SHT31;67755;51.986;5.696;2023-11-21T05:15:16;12.5;69.4
78461;SHT31;67755;51.986;5.696;2023-11-21T05:17:47;12.5;69.4
78461;SHT31;67755;51.986;5.696;2023-11-21T05:20:18;12.5;69.5
78461;SHT31;67755;51.986;5.696;2023-11-21T05:22:48;12.5;69.5
78461;SHT31;67755;51.986;5.696;2023-11-21T05:25:17;12.5;69.5
78461;SHT31;67755;51.986;5.696;2023-11-21T05:27:47;12.5;69.6
78461;SHT31;67755;51.986;5.696;2023-11-21T05:30:16;12.5;69.6
78461;SHT31;67755;51.986;5.696;2023-11-21T05:32:44;12.6;69.6
78461;SHT31;67755;51.986;5.696;2023-11-21T05:35:13;12.6;69.5
78461;SHT31;67755;51.986;5.696;2023-11-21T05:37:42;12.6;69.6
78461;SHT31;67755;51.986;5.696;2023-11-21T05:40:17;12.6;69.7
78461;SHT31;67755;51.986;5.696;2023-11-21T05:42:48;12.6;69.7
78461;SHT31;67755;51.986;5.696;2023-11-21T05:45:20;12.6;69.7
78461;SHT31;67755;51.986;5.696;2023-11-21T05:47:49;12.6;69.8
78461;SHT31;67755;51.986;5.696;2023-11-21T05:50:17;12.7;69.7
78461;SHT31;67755;51.986;5.696;2023-11-21T05:52:47;12.7;69.6
78461;SHT31;67755;51.986;5.696;2023-11-21T05:55:16;12.7;69.7
78461;SHT31;67755;51.986;5.696;2023-11-21T05:57:47;12.7;69.7
78461;SHT31;67755;51.986;5.696;2023-11-21T06:00:18;12.7;69.8
78461;SHT31;67755;51.986;5.696;2023-11-21T06:02:50;12.7;69.8
78461;SHT31;67755;51.986;5.696;2023-11-21T06:05:21;12.7;69.8
78461;SHT31;67755;51.986;5.696;2023-11-21T06:07:50;12.7;69.9
78461;SHT31;67755;51.986;5.696;2023-11-21T06:10:20;12.7;69.9
78461;SHT31;67755;51.986;5.696;2023-11-21T06:12:50;12.7;70.0
78461;SHT31;67755;51.986;5.696;2023-11-21T06:15:19;12.7;70.1
78461;SHT31;67755;51.986;5.696;2023-11-21T06:17:50;12.7;70.1
78461;SHT31;67755;51.986;5.696;2023-11-21T06:20:21;12.7;70.1
78461;SHT31;67755;51.986;5.696;2023-11-21T06:22:50;12.7;70.1
78461;SHT31;67755;51.986;5.696;2023-11-21T06:25:19;12.7;70.1
78461;SHT31;67755;51.986;5.696;2023-11-21T06:27:49;12.8;70.1
78461;SHT31;67755;51.986;5.696;2023-11-21T06:30:20;12.8;70.2
78461;SHT31;67755;51.986;5.696;2023-11-21T06:32:49;12.8;70.1
78461;SHT31;67755;51.986;5.696;2023-11-21T06:35:19;12.8;70.2
78461;SHT31;67755;51.986;5.696;2023-11-21T06:37:47;12.8;70.1
78461;SHT31;67755;51.986;5.696;2023-11-21T06:40:18;12.8;70.2
78461;SHT31;67755;51.986;5.696;2023-11-21T06:42:47;12.8;70.2
78461;SHT31;67755;51.986;5.696;2023-11-21T06:45:17;12.8;70.2
78461;SHT31;67755;51.986;5.696;2023-11-21T06:47:48;12.8;70.3
78461;SHT31;67755;51.986;5.696;2023-11-21T06:50:17;12.8;70.3
78461;SHT31;67755;51.986;5.696;2023-11-21T06:52:47;12.8;70.4
78461;SHT31;67755;51.986;5.696;2023-11-21T06:55:16;12.8;70.3
78461;SHT31;67755;51.986;5.696;2023-11-21T06:57:45;12.8;70.4
78461;SHT31;67755;51.986;5.696;2023-11-21T07:00:16;12.8;70.4
78461;SHT31;67755;51.986;5.696;2023-11-21T07:02:46;12.8;70.5
78461;SHT31;67755;51.986;5.696;2023-11-21T07:05:15;12.8;70.6
78461;SHT31;67755;51.986;5.696;2023-11-21T07:07:47;12.8;70.6
78461;SHT31;67755;51.986;5.696;2023-11-21T07:10:16;12.8;70.6
78461;SHT31;67755;51.986;5.696;2023-11-21T07:12:45;12.9;70.5
78461;SHT31;67755;51.986;5.696;2023-11-21T07:15:14;12.9;70.4
78461;SHT31;67755;51.986;5.696;2023-11-21T07:17:43;12.9;70.4
78461;SHT31;67755;51.986;5.696;2023-11-21T07:20:13;12.9;70.4
78461;SHT31;67755;51.986;5.696;2023-11-21T07:22:43;12.9;70.3
78461;SHT31;67755;51.986;5.696;2023-11-21T07:25:12;12.9;70.4
78461;SHT31;67755;51.986;5.696;2023-11-21T07:27:42;12.9;70.5
78461;SHT31;67755;51.986;5.696;2023-11-21T07:30:12;12.9;70.4
78461;SHT31;67755;51.986;5.696;2023-11-21T07:32:41;13.0;70.3
78461;SHT31;67755;51.986;5.696;2023-11-21T07:35:13;13.0;70.4
78461;SHT31;67755;51.986;5.696;2023-11-21T07:37:41;13.0;70.4
78461;SHT31;67755;51.986;5.696;2023-11-21T07:40:14;13.0;70.5
78461;SHT31;67755;51.986;5.696;2023-11-21T07:42:43;13.0;70.6
78461;SHT31;67755;51.986;5.696;2023-11-21T07:45:12;13.0;70.6
78461;SHT31;67755;51.986;5.696;2023-11-21T07:47:41;13.0;70.6
78461;SHT31;67755;51.986;5.696;2023-11-21T07:50:10;13.0;70.6
78461;SHT31;67755;51.986;5.696;2023-11-21T07:52:40;13.0;70.7
78461;SHT31;67755;51.986;5.696;2023-11-21T07:55:08;13.0;70.8
78461;SHT31;67755;51.986;5.696;2023-11-21T07:57:38;13.0;70.8
78461;SHT31;67755;51.986;5.696;2023-11-21T08:00:07;13.0;70.8
78461;SHT31;67755;51.986;5.696;2023-11-21T08:02:39;13.0;70.9
78461;SHT31;67755;51.986;5.696;2023-11-21T08:05:09;13.1;70.8
78461;SHT31;67755;51.986;5.696;2023-11-21T08:07:37;13.1;70.9
78461;SHT31;67755;51.986;5.696;2023-11-21T08:10:07;13.1;70.9
78461;SHT31;67755;51.986;5.696;2023-11-21T08:12:37;13.1;70.9
78461;SHT31;67755;51.986;5.696;2023-11-21T08:15:09;13.1;71.0
78461;SHT31;67755;51.986;5.696;2023-11-21T08:17:38;13.1;71.1
78461;SHT31;67755;51.986;5.696;2023-11-21T08:20:07;13.1;71.1
78461;SHT31;67755;51.986;5.696;2023-11-21T08:22:37;13.1;71.0
78461;SHT31;67755;51.986;5.696;2023-11-21T08:25:07;13.2;71.1
78461;SHT31;67755;51.986;5.696;2023-11-21T08:27:37;13.2;71.0
78461;SHT31;67755;51.986;5.696;2023-11-21T08:30:06;13.2;71.1
78461;SHT31;67755;51.986;5.696;2023-11-21T08:32:35;13.2;71.2
78461;SHT31;67755;51.986;5.696;2023-11-21T08:35:04;13.2;71.3
78461;SHT31;67755;51.986;5.696;2023-11-21T08:37:34;13.2;71.3
78461;SHT31;67755;51.986;5.696;2023-11-21T08:40:06;13.2;71.4
78461;SHT31;67755;51.986;5.696;2023-11-21T08:42:36;13.3;71.5
78461;SHT31;67755;51.986;5.696;2023-11-21T08:45:10;13.3;71.7
78461;SHT31;67755;51.986;5.696;2023-11-21T08:47:39;13.3;71.8
78461;SHT31;67755;51.986;5.696;2023-11-21T08:50:11;13.3;71.7
78461;SHT31;67755;51.986;5.696;2023-11-21T08:52:41;13.3;71.7
78461;SHT31;67755;51.986;5.696;2023-11-21T08:55:10;13.3;71.7
78461;SHT31;67755;51.986;5.696;2023-11-21T08:57:43;13.4;71.6
78461;SHT31;67755;51.986;5.696;2023-11-21T09:00:13;13.4;71.6
78461;SHT31;67755;51.986;5.696;2023-11-21T09:02:44;13.4;71.6
78461;SHT31;67755;51.986;5.696;2023-11-21T09:05:14;13.4;71.5
78461;SHT31;67755;51.986;5.696;2023-11-21T09:07:43;13.4;71.5
78461;SHT31;67755;51.986;5.696;2023-11-21T09:10:13;13.4;71.5
78461;SHT31;67755;51.986;5.696;2023-11-21T09:12:42;13.5;71.4
78461;SHT31;67755;51.986;5.696;2023-11-21T09:17:37;13.6;71.5
78461;SHT31;67755;51.986;5.696;2023-11-21T09:22:30;13.7;70.9
78461;SHT31;67755;51.986;5.696;2023-11-21T09:24:59;13.7;70.8
78461;SHT31;67755;51.986;5.696;2023-11-21T09:27:31;13.8;70.8
78461;SHT31;67755;51.986;5.696;2023-11-21T09:30:00;13.8;70.9
78461;SHT31;67755;51.986;5.696;2023-11-21T09:32:31;13.8;71.0
78461;SHT31;67755;51.986;5.696;2023-11-21T09:35:02;13.8;71.2
78461;SHT31;67755;51.986;5.696;2023-11-21T09:37:31;13.8;71.2
78461;SHT31;67755;51.986;5.696;2023-11-21T09:40:00;13.8;71.3
78461;SHT31;67755;51.986;5.696;2023-11-21T09:42:35;13.8;71.5
78461;SHT31;67755;51.986;5.696;2023-11-21T09:45:13;13.8;71.7
78461;SHT31;67755;51.986;5.696;2023-11-21T09:47:45;13.8;71.9
78461;SHT31;67755;51.986;5.696;2023-11-21T09:50:17;13.8;72.2
78461;SHT31;67755;51.986;5.696;2023-11-21T09:53:03;13.8;72.3
78461;SHT31;67755;51.986;5.696;2023-11-21T09:55:35;13.8;73.1
78461;SHT31;67755;51.986;5.696;2023-11-21T09:58:05;13.8;73.3
78461;SHT31;67755;51.986;5.696;2023-11-21T10:00:40;13.8;73.3
78461;SHT31;67755;51.986;5.696;2023-11-21T10:03:09;13.9;73.6
78461;SHT31;67755;51.986;5.696;2023-11-21T10:05:39;13.9;73.6
78461;SHT31;67755;51.986;5.696;2023-11-21T10:08:10;13.9;73.2
78461;SHT31;67755;51.986;5.696;2023-11-21T10:10:43;13.9;73.4
78461;SHT31;67755;51.986;5.696;2023-11-21T10:13:14;13.9;73.3
78461;SHT31;67755;51.986;5.696;2023-11-21T10:15:49;13.9;72.9
78461;SHT31;67755;51.986;5.696;2023-11-21T10:18:19;13.9;72.8
78461;SHT31;67755;51.986;5.696;2023-11-21T10:20:50;13.9;72.9
78461;SHT31;67755;51.986;5.696;2023-11-21T10:23:21;14.0;72.5
78461;SHT31;67755;51.986;5.696;2023-11-21T10:25:52;14.0;72.1
78461;SHT31;67755;51.986;5.696;2023-11-21T10:28:21;14.0;72.3
78461;SHT31;67755;51.986;5.696;2023-11-21T10:30:52;14.0;72.5
78461;SHT31;67755;51.986;5.696;2023-11-21T10:33:30;14.0;72.4
78461;SHT31;67755;51.986;5.696;2023-11-21T10:35:59;14.0;72.2
78461;SHT31;67755;51.986;5.696;2023-11-21T10:38:33;14.0;72.3
78461;SHT31;67755;51.986;5.696;2023-11-21T10:41:06;14.0;72.2
78461;SHT31;67755;51.986;5.696;2023-11-21T10:43:38;14.0;72.2
78461;SHT31;67755;51.986;5.696;2023-11-21T10:46:08;14.0;71.8
78461;SHT31;67755;51.986;5.696;2023-11-21T10:48:39;14.0;71.8
78461;SHT31;67755;51.986;5.696;2023-11-21T10:51:11;14.1;71.7
78461;SHT31;67755;51.986;5.696;2023-11-21T10:53:40;14.1;71.3
78461;SHT31;67755;51.986;5.696;2023-11-21T10:56:13;14.1;71.5
78461;SHT31;67755;51.986;5.696;2023-11-21T10:58:46;14.1;71.7
78461;SHT31;67755;51.986;5.696;2023-11-21T11:01:19;14.1;71.9
78461;SHT31;67755;51.986;5.696;2023-11-21T11:03:50;14.1;71.6
78461;SHT31;67755;51.986;5.696;2023-11-21T11:06:21;14.1;71.3
78461;SHT31;67755;51.986;5.696;2023-11-21T11:08:51;14.1;71.5
78461;SHT31;67755;51.986;5.696;2023-11-21T11:11:19;14.1;71.7
78461;SHT31;67755;51.986;5.696;2023-11-21T11:13:48;14.1;71.8
78461;SHT31;67755;51.986;5.696;2023-11-21T11:16:17;14.1;71.6
78461;SHT31;67755;51.986;5.696;2023-11-21T11:18:46;14.1;71.5
78461;SHT31;67755;51.986;5.696;2023-11-21T11:21:27;14.1;71.3
78461;SHT31;67755;51.986;5.696;2023-11-21T11:24:21;14.1;71.5
78461;SHT31;67755;51.986;5.696;2023-11-21T11:27:01;14.1;71.2
78461;SHT31;67755;51.986;5.696;2023-11-21T11:29:42;14.1;71.5
78461;SHT31;67755;51.986;5.696;2023-11-21T11:32:25;14.1;71.6
78461;SHT31;67755;51.986;5.696;2023-11-21T11:37:20;14.2;71.1
78461;SHT31;67755;51.986;5.696;2023-11-21T11:39:51;14.2;71.3
78461;SHT31;67755;51.986;5.696;2023-11-21T11:42:21;14.2;71.4
78461;SHT31;67755;51.986;5.696;2023-11-21T11:44:52;14.2;71.4
78461;SHT31;67755;51.986;5.696;2023-11-21T11:47:24;14.2;71.4
78461;SHT31;67755;51.986;5.696;2023-11-21T11:50:02;14.2;71.3
78461;SHT31;67755;51.986;5.696;2023-11-21T11:52:41;14.2;71.2
78461;SHT31;67755;51.986;5.696;2023-11-21T11:55:12;14.2;71.5
78461;SHT31;67755;51.986;5.696;2023-11-21T11:57:46;14.2;71.5
78461;SHT31;67755;51.986;5.696;2023-11-21T12:00:18;14.2;71.4
78461;SHT31;67755;51.986;5.696;2023-11-21T12:02:52;14.1;71.5
78461;SHT31;67755;51.986;5.696;2023-11-21T12:05:23;14.1;71.6
78461;SHT31;67755;51.986;5.696;2023-11-21T12:07:55;14.1;71.6
78461;SHT31;67755;51.986;5.696;2023-11-21T12:10:26;14.1;71.3
78461;SHT31;67755;51.986;5.696;2023-11-21T12:12:56;14.1;71.2
78461;SHT31;67755;51.986;5.696;2023-11-21T12:15:26;14.1;71.2
78461;SHT31;67755;51.986;5.696;2023-11-21T12:17:56;14.1;71.4
78461;SHT31;67755;51.986;5.696;2023-11-21T12:20:25;14.1;71.8
78461;SHT31;67755;51.986;5.696;2023-11-21T12:22:56;14.1;71.8
78461;SHT31;67755;51.986;5.696;2023-11-21T12:25:27;14.1;71.4
78461;SHT31;67755;51.986;5.696;2023-11-21T12:27:59;14.1;71.7
78461;SHT31;67755;51.986;5.696;2023-11-21T12:30:31;14.1;71.5
78461;SHT31;67755;51.986;5.696;2023-11-21T12:33:03;14.1;71.3
78461;SHT31;67755;51.986;5.696;2023-11-21T12:35:34;14.1;71.7
78461;SHT31;67755;51.986;5.696;2023-11-21T12:38:05;14.1;72.0
78461;SHT31;67755;51.986;5.696;2023-11-21T12:40:37;14.1;71.1
78461;SHT31;67755;51.986;5.696;2023-11-21T12:43:07;14.1;71.5
78461;SHT31;67755;51.986;5.696;2023-11-21T12:45:38;14.1;70.4
78461;SHT31;67755;51.986;5.696;2023-11-21T12:48:06;14.1;70.4
78461;SHT31;67755;51.986;5.696;2023-11-21T12:50:38;14.1;70.3
78461;SHT31;67755;51.986;5.696;2023-11-21T12:53:09;14.1;70.6
78461;SHT31;67755;51.986;5.696;2023-11-21T12:55:39;14.1;70.7
78461;SHT31;67755;51.986;5.696;2023-11-21T12:58:09;14.1;70.8
78461;SHT31;67755;51.986;5.696;2023-11-21T13:00:42;14.1;70.3
78461;SHT31;67755;51.986;5.696;2023-11-21T13:03:12;14.1;70.8
78461;SHT31;67755;51.986;5.696;2023-11-21T13:05:44;14.1;70.7
78461;SHT31;67755;51.986;5.696;2023-11-21T13:08:17;14.1;71.0
78461;SHT31;67755;51.986;5.696;2023-11-21T13:10:49;14.0;70.7
78461;SHT31;67755;51.986;5.696;2023-11-21T13:13:21;14.0;71.1
78461;SHT31;67755;51.986;5.696;2023-11-21T13:15:52;14.0;71.2
78461;SHT31;67755;51.986;5.696;2023-11-21T13:18:22;14.1;70.6
78461;SHT31;67755;51.986;5.696;2023-11-21T13:20:53;14.1;70.0
78461;SHT31;67755;51.986;5.696;2023-11-21T13:23:22;14.1;70.3
78461;SHT31;67755;51.986;5.696;2023-11-21T13:25:51;14.1;70.6
78461;SHT31;67755;51.986;5.696;2023-11-21T13:28:20;14.1;70.8
78461;SHT31;67755;51.986;5.696;2023-11-21T13:30:50;14.1;70.0
78461;SHT31;67755;51.986;5.696;2023-11-21T13:33:20;14.1;70.4
78461;SHT31;67755;51.986;5.696;2023-11-21T13:35:54;14.1;70.8
78461;SHT31;67755;51.986;5.696;2023-11-21T13:38:23;14.1;70.9
78461;SHT31;67755;51.986;5.696;2023-11-21T13:40:57;14.1;70.7
78461;SHT31;67755;51.986;5.696;2023-11-21T13:43:26;14.1;70.7
78461;SHT31;67755;51.986;5.696;2023-11-21T13:45:55;14.1;70.5
78461;SHT31;67755;51.986;5.696;2023-11-21T13:48:30;14.1;71.0
78461;SHT31;67755;51.986;5.696;2023-11-21T13:51:05;14.2;70.2
78461;SHT31;67755;51.986;5.696;2023-11-21T13:53:41;14.2;69.9
78461;SHT31;67755;51.986;5.696;2023-11-21T13:56:11;14.2;70.5
78461;SHT31;67755;51.986;5.696;2023-11-21T13:58:42;14.2;70.4
78461;SHT31;67755;51.986;5.696;2023-11-21T14:01:13;14.2;70.7
78461;SHT31;67755;51.986;5.696;2023-11-21T14:03:52;14.3;70.1
78461;SHT31;67755;51.986;5.696;2023-11-21T14:06:25;14.3;69.7
78461;SHT31;67755;51.986;5.696;2023-11-21T14:08:59;14.3;70.0
78461;SHT31;67755;51.986;5.696;2023-11-21T14:11:31;14.3;69.7
78461;SHT31;67755;51.986;5.696;2023-11-21T14:14:00;14.3;68.8
78461;SHT31;67755;51.986;5.696;2023-11-21T14:16:29;14.3;68.1
78461;SHT31;67755;51.986;5.696;2023-11-21T14:18:57;14.3;68.2
78461;SHT31;67755;51.986;5.696;2023-11-21T14:21:31;14.2;68.5
78461;SHT31;67755;51.986;5.696;2023-11-21T14:24:01;14.2;68.5
78461;SHT31;67755;51.986;5.696;2023-11-21T14:26:34;14.1;68.5
78461;SHT31;67755;51.986;5.696;2023-11-21T14:29:03;14.1;68.7
78461;SHT31;67755;51.986;5.696;2023-11-21T14:31:34;14.1;68.8
78461;SHT31;67755;51.986;5.696;2023-11-21T14:34:02;14.1;68.9
78461;SHT31;67755;51.986;5.696;2023-11-21T14:36:32;14.1;69.2
78461;SHT31;67755;51.986;5.696;2023-11-21T14:39:03;14.0;69.3
78461;SHT31;67755;51.986;5.696;2023-11-21T14:41:35;14.0;69.5
78461;SHT31;67755;51.986;5.696;2023-11-21T14:44:06;14.0;69.0
78461;SHT31;67755;51.986;5.696;2023-11-21T14:46:38;14.0;69.0
78461;SHT31;67755;51.986;5.696;2023-11-21T14:49:12;14.0;68.5
78461;SHT31;67755;51.986;5.696;2023-11-21T14:51:51;14.0;68.7
78461;SHT31;67755;51.986;5.696;2023-11-21T14:54:31;14.0;67.9
78461;SHT31;67755;51.986;5.696;2023-11-21T14:57:13;13.9;67.3
78461;SHT31;67755;51.986;5.696;2023-11-21T14:59:46;13.9;67.7
78461;SHT31;67755;51.986;5.696;2023-11-21T15:02:18;13.9;67.9
78461;SHT31;67755;51.986;5.696;2023-11-21T15:04:49;13.9;68.3
78461;SHT31;67755;51.986;5.696;2023-11-21T15:07:19;13.8;67.7
78461;SHT31;67755;51.986;5.696;2023-11-21T15:09:48;13.8;67.4
78461;SHT31;67755;51.986;5.696;2023-11-21T15:12:19;13.8;67.6
78461;SHT31;67755;51.986;5.696;2023-11-21T15:14:52;13.7;66.9
78461;SHT31;67755;51.986;5.696;2023-11-21T15:17:23;13.7;67.5
78461;SHT31;67755;51.986;5.696;2023-11-21T15:19:53;13.7;67.4
78461;SHT31;67755;51.986;5.696;2023-11-21T15:22:23;13.6;67.4
78461;SHT31;67755;51.986;5.696;2023-11-21T15:24:54;13.6;67.1
78461;SHT31;67755;51.986;5.696;2023-11-21T15:27:24;13.6;66.2
78461;SHT31;67755;51.986;5.696;2023-11-21T15:29:53;13.6;65.7
78461;SHT31;67755;51.986;5.696;2023-11-21T15:32:22;13.5;65.1
78461;SHT31;67755;51.986;5.696;2023-11-21T15:34:55;13.5;65.1
78461;SHT31;67755;51.986;5.696;2023-11-21T15:37:23;13.4;65.3
78461;SHT31;67755;51.986;5.696;2023-11-21T15:39:54;13.4;64.8
78461;SHT31;67755;51.986;5.696;2023-11-21T15:42:22;13.3;65.2
78461;SHT31;67755;51.986;5.696;2023-11-21T15:44:51;13.3;65.8
78461;SHT31;67755;51.986;5.696;2023-11-21T15:47:20;13.3;65.6
78461;SHT31;67755;51.986;5.696;2023-11-21T15:49:48;13.3;64.8
78461;SHT31;67755;51.986;5.696;2023-11-21T15:52:17;13.2;64.8
78461;SHT31;67755;51.986;5.696;2023-11-21T15:54:46;13.2;64.9
78461;SHT31;67755;51.986;5.696;2023-11-21T15:57:14;13.2;65.2
78461;SHT31;67755;51.986;5.696;2023-11-21T15:59:44;13.2;64.4
78461;SHT31;67755;51.986;5.696;2023-11-21T16:02:13;13.2;64.6
78461;SHT31;67755;51.986;5.696;2023-11-21T16:04:42;13.2;65.6
78461;SHT31;67755;51.986;5.696;2023-11-21T16:07:13;13.2;65.2
78461;SHT31;67755;51.986;5.696;2023-11-21T16:09:41;13.2;65.4
78461;SHT31;67755;51.986;5.696;2023-11-21T16:12:11;13.2;64.9
78461;SHT31;67755;51.986;5.696;2023-11-21T16:14:39;13.1;63.2
78461;SHT31;67755;51.986;5.696;2023-11-21T16:17:12;13.1;63.0
78461;SHT31;67755;51.986;5.696;2023-11-21T16:19:40;13.1;62.7
78461;SHT31;67755;51.986;5.696;2023-11-21T16:22:10;13.1;63.1
78461;SHT31;67755;51.986;5.696;2023-11-21T16:24:39;13.0;63.1
78461;SHT31;67755;51.986;5.696;2023-11-21T16:27:09;13.0;63.1
78461;SHT31;67755;51.986;5.696;2023-11-21T16:29:38;13.0;62.0